Time;durP1;ratioP1;P1;durP2;ratioP2;P2;SDS_P1;SDS_P2;PMS_P1;PMS_P2;Temp;Humidity;BMP_temperature;BMP_pressure;BME280_temperature;BME280_humidity;BME280_pressure;Samples;Min_cycle;Max_cycle;Signal;HPM_P1;HPM_P2
2022/05/07 00:00:38;;;;;;;9.30;6.13;;;;;;;;;;5012622;28;20481;-78
2022/05/07 00:03:04;;;;;;;9.23;5.47;;;;;;;;;;5012659;28;20112;-79
2022/05/07 00:05:31;;;;;;;7.35;5.45;;;;;;;;;;5012749;28;20105;-79
2022/05/07 00:07:57;;;;;;;7.97;5.93;;;;;;;;;;4997095;28;20697;-77
2022/05/07 00:10:23;;;;;;;9.05;5.90;;;;;;;;;;4997965;28;20108;-79
2022/05/07 00:12:49;;;;;;;8.65;6.63;;;;;;;;;;5012806;28;20029;-78
2022/05/07 00:15:16;;;;;;;7.80;5.43;;;;;;;;;;5012682;28;20022;-78
2022/05/07 00:20:27;;;;;;;10.60;6.95;;;;;;;;;;5012799;28;20057;-79
2022/05/07 00:22:53;;;;;;;10.60;7.53;;;;;;;;;;5012388;28;20030;-79
2022/05/07 00:25:19;;;;;;;11.93;7.22;;;;;;;;;;4994876;28;20034;-78
2022/05/07 00:27:46;;;;;;;7.70;6.18;;;;;;;;;;5012571;28;20040;-78
2022/05/07 00:30:12;;;;;;;8.30;6.30;;;;;;;;;;5012696;28;20073;-77
2022/05/07 00:32:38;;;;;;;7.95;6.65;;;;;;;;;;5012370;28;20097;-77
2022/05/07 00:35:04;;;;;;;8.63;5.95;;;;;;;;;;4994263;28;20104;-79
2022/05/07 00:37:31;;;;;;;8.63;6.40;;;;;;;;;;5012472;28;20026;-79
2022/05/07 00:39:58;;;;;;;11.82;6.07;;;;;;;;;;4994768;28;20088;-76
2022/05/07 00:42:24;;;;;;;8.63;5.97;;;;;;;;;;5012123;28;20041;-78
2022/05/07 00:44:50;;;;;;;12.82;6.93;;;;;;;;;;4994724;28;20393;-77
2022/05/07 00:47:17;;;;;;;13.55;6.55;;;;;;;;;;4994760;28;20069;-77
2022/05/07 00:49:44;;;;;;;16.38;9.40;;;;;;;;;;4994912;28;20419;-76
2022/05/07 00:52:10;;;;;;;8.70;6.88;;;;;;;;;;4994732;28;20029;-76
2022/05/07 00:54:36;;;;;;;11.23;7.32;;;;;;;;;;5012698;28;20026;-79
2022/05/07 00:57:03;;;;;;;9.25;6.10;;;;;;;;;;4995013;28;20049;-78
2022/05/07 00:59:29;;;;;;;11.25;6.47;;;;;;;;;;5012785;28;20068;-77
2022/05/07 01:01:55;;;;;;;11.77;5.97;;;;;;;;;;5012153;28;20523;-77
2022/05/07 01:04:21;;;;;;;15.52;6.63;;;;;;;;;;5012691;28;20100;-79
2022/05/07 01:06:47;;;;;;;10.80;7.20;;;;;;;;;;5012369;28;20026;-77
2022/05/07 01:09:13;;;;;;;9.75;6.70;;;;;;;;;;5012702;28;20030;-78
2022/05/07 01:11:41;;;;;;;9.23;6.18;;;;;;;;;;4998950;28;20029;-77
2022/05/07 01:14:07;;;;;;;9.98;6.47;;;;;;;;;;5012117;28;20541;-78
2022/05/07 01:16:33;;;;;;;9.00;7.47;;;;;;;;;;5012152;28;20053;-76
2022/05/07 01:18:59;;;;;;;8.32;6.40;;;;;;;;;;4993792;28;20061;-78
2022/05/07 01:21:27;;;;;;;9.25;6.35;;;;;;;;;;5011761;28;20022;-77
2022/05/07 01:23:53;;;;;;;9.90;6.20;;;;;;;;;;5011682;28;20135;-77
2022/05/07 01:26:23;;;;;;;13.27;6.97;;;;;;;;;;4994450;28;20473;-75
2022/05/07 01:28:49;;;;;;;9.68;6.47;;;;;;;;;;4994546;28;20057;-78
2022/05/07 01:31:16;;;;;;;9.50;5.72;;;;;;;;;;4994417;28;20433;-79
2022/05/07 01:33:42;;;;;;;11.15;6.63;;;;;;;;;;5012094;28;20024;-77
2022/05/07 01:36:16;;;;;;;8.63;6.22;;;;;;;;;;4994435;28;20068;-78
2022/05/07 01:38:42;;;;;;;9.68;5.82;;;;;;;;;;4994535;28;20018;-78
2022/05/07 01:41:08;;;;;;;9.43;5.82;;;;;;;;;;4994313;28;20036;-79
2022/05/07 01:43:34;;;;;;;13.10;6.45;;;;;;;;;;4994452;28;20038;-78
2022/05/07 01:46:01;;;;;;;10.95;7.97;;;;;;;;;;4994332;28;20026;-79
2022/05/07 01:48:27;;;;;;;10.73;6.38;;;;;;;;;;4997099;28;20053;-77
2022/05/07 01:50:53;;;;;;;11.77;7.90;;;;;;;;;;4997886;28;20018;-77
2022/05/07 01:53:19;;;;;;;10.10;7.00;;;;;;;;;;5015389;28;20033;-78
2022/05/07 01:55:45;;;;;;;10.63;7.50;;;;;;;;;;4997824;28;20397;-78
2022/05/07 01:58:11;;;;;;;11.40;7.53;;;;;;;;;;5015335;28;20029;-80
2022/05/07 02:00:40;;;;;;;12.52;7.78;;;;;;;;;;4997632;28;20473;-77
2022/05/07 02:03:06;;;;;;;9.23;7.20;;;;;;;;;;4997709;28;20044;-78
2022/05/07 02:05:33;;;;;;;11.20;8.07;;;;;;;;;;4997952;28;20504;-76
2022/05/07 02:07:59;;;;;;;10.00;6.75;;;;;;;;;;5014882;28;20046;-78
2022/05/07 02:10:25;;;;;;;12.85;8.90;;;;;;;;;;4997557;28;20022;-76
2022/05/07 02:12:52;;;;;;;9.95;8.02;;;;;;;;;;5002828;28;20026;-75
2022/05/07 02:15:18;;;;;;;9.75;7.38;;;;;;;;;;5015319;28;20018;-76
2022/05/07 02:17:44;;;;;;;9.07;7.25;;;;;;;;;;4997383;28;20061;-79
2022/05/07 02:20:11;;;;;;;12.30;8.38;;;;;;;;;;4997006;28;20050;-77
2022/05/07 02:22:37;;;;;;;12.40;7.28;;;;;;;;;;4997400;28;20057;-76
2022/05/07 02:25:04;;;;;;;7.70;5.85;;;;;;;;;;4997025;28;20026;-78
2022/05/07 02:27:30;;;;;;;8.88;7.13;;;;;;;;;;4997161;28;20053;-77
2022/05/07 02:29:56;;;;;;;9.60;7.10;;;;;;;;;;4996923;28;20025;-78
2022/05/07 02:32:22;;;;;;;11.82;7.22;;;;;;;;;;4997158;28;20033;-77
2022/05/07 02:34:48;;;;;;;10.35;8.20;;;;;;;;;;4996979;28;20112;-78
2022/05/07 02:37:14;;;;;;;8.40;7.18;;;;;;;;;;5014820;28;20022;-77
2022/05/07 02:39:41;;;;;;;11.10;6.80;;;;;;;;;;5014634;28;20026;-77
2022/05/07 02:44:51;;;;;;;9.80;7.55;;;;;;;;;;5014083;28;20472;-79
2022/05/07 02:47:17;;;;;;;8.88;7.20;;;;;;;;;;4996596;28;20026;-77
2022/05/07 02:49:43;;;;;;;10.13;6.90;;;;;;;;;;4996603;28;20022;-77
2022/05/07 02:52:09;;;;;;;10.90;7.55;;;;;;;;;;5014196;28;20026;-79
2022/05/07 02:54:35;;;;;;;10.55;7.82;;;;;;;;;;5013934;28;20033;-77
2022/05/07 02:57:02;;;;;;;12.13;8.38;;;;;;;;;;4996444;28;20025;-77
2022/05/07 02:59:28;;;;;;;13.95;7.63;;;;;;;;;;4996022;28;20488;-77
2022/05/07 03:01:54;;;;;;;10.05;8.10;;;;;;;;;;4996254;28;20161;-79
2022/05/07 03:04:20;;;;;;;9.43;7.15;;;;;;;;;;4996389;28;20361;-77
2022/05/07 03:06:46;;;;;;;10.55;7.78;;;;;;;;;;5013947;28;20068;-75
2022/05/07 03:09:12;;;;;;;9.38;7.32;;;;;;;;;;4996268;28;20026;-77
2022/05/07 03:11:38;;;;;;;10.73;7.97;;;;;;;;;;4996182;28;20022;-77
2022/05/07 03:14:06;;;;;;;15.32;7.95;;;;;;;;;;5019480;28;20022;-76
2022/05/07 03:16:35;;;;;;;11.57;8.02;;;;;;;;;;4996110;28;20432;-75
2022/05/07 03:19:02;;;;;;;10.50;8.00;;;;;;;;;;5013558;28;20076;-77
2022/05/07 03:21:28;;;;;;;16.40;9.88;;;;;;;;;;4996329;28;20084;-77
2022/05/07 03:23:54;;;;;;;10.85;8.32;;;;;;;;;;5013143;28;20038;-79
2022/05/07 03:26:22;;;;;;;12.75;8.65;;;;;;;;;;4995850;28;20146;-78
2022/05/07 03:28:48;;;;;;;12.80;9.60;;;;;;;;;;5013497;28;20025;-77
2022/05/07 03:31:15;;;;;;;11.82;9.75;;;;;;;;;;4995809;28;20026;-77
2022/05/07 03:33:41;;;;;;;12.85;10.52;;;;;;;;;;5013672;28;20026;-78
2022/05/07 03:36:09;;;;;;;14.38;8.98;;;;;;;;;;4995858;28;20117;-78
2022/05/07 03:38:35;;;;;;;11.07;9.27;;;;;;;;;;4995743;28;20097;-79
2022/05/07 03:41:03;;;;;;;13.95;9.93;;;;;;;;;;5013016;28;20440;-77
2022/05/07 03:43:29;;;;;;;14.88;8.50;;;;;;;;;;4995276;28;20034;-77
2022/05/07 03:45:55;;;;;;;12.32;9.55;;;;;;;;;;5013097;28;20022;-79
2022/05/07 03:48:21;;;;;;;17.13;9.48;;;;;;;;;;4995536;28;20117;-77
2022/05/07 03:50:47;;;;;;;10.23;7.43;;;;;;;;;;4995536;28;20018;-78
2022/05/07 03:53:31;;;;;;;10.57;8.63;;;;;;;;;;4995448;28;20029;-77
2022/05/07 03:56:01;;;;;;;9.98;8.43;;;;;;;;;;4995821;28;20049;-78
2022/05/07 03:58:27;;;;;;;11.95;8.82;;;;;;;;;;4995410;28;20064;-77
2022/05/07 04:00:54;;;;;;;12.20;7.97;;;;;;;;;;5000416;28;20147;-75
2022/05/07 04:03:20;;;;;;;11.77;9.27;;;;;;;;;;5030387;28;20503;-79
2022/05/07 04:05:46;;;;;;;10.73;9.23;;;;;;;;;;5015193;28;20017;-76
2022/05/07 04:08:13;;;;;;;13.38;9.20;;;;;;;;;;5014959;28;20021;-80
2022/05/07 04:10:39;;;;;;;11.77;9.70;;;;;;;;;;5014498;28;20044;-76
2022/05/07 04:13:06;;;;;;;12.65;9.23;;;;;;;;;;5014660;28;20029;-78
2022/05/07 04:15:32;;;;;;;14.07;9.95;;;;;;;;;;5032408;28;20149;-76
2022/05/07 04:17:58;;;;;;;12.80;9.98;;;;;;;;;;5018495;28;20105;-77
2022/05/07 04:20:25;;;;;;;12.75;8.20;;;;;;;;;;5016547;28;20049;-84
2022/05/07 04:22:51;;;;;;;15.70;8.95;;;;;;;;;;5017218;28;20644;-83
2022/05/07 04:25:17;;;;;;;12.80;7.85;;;;;;;;;;5014164;28;20079;-84
2022/05/07 04:27:43;;;;;;;13.73;10.65;;;;;;;;;;5005498;28;20441;-85
2022/05/07 04:30:09;;;;;;;15.00;10.95;;;;;;;;;;5022515;28;20030;-86
2022/05/07 04:32:35;;;;;;;20.75;11.13;;;;;;;;;;5031096;28;20017;-81
2022/05/07 04:35:02;;;;;;;15.65;11.15;;;;;;;;;;5034676;28;20087;-80
2022/05/07 04:37:28;;;;;;;13.43;10.27;;;;;;;;;;5020714;28;20024;-81
2022/05/07 04:39:54;;;;;;;17.55;10.02;;;;;;;;;;5030675;28;20053;-83
2022/05/07 04:42:20;;;;;;;15.90;9.32;;;;;;;;;;5032563;28;20116;-82
2022/05/07 04:44:46;;;;;;;14.18;9.85;;;;;;;;;;5032767;28;20113;-81
2022/05/07 04:47:12;;;;;;;11.38;7.95;;;;;;;;;;5019559;28;20473;-81
2022/05/07 04:49:38;;;;;;;12.02;8.65;;;;;;;;;;5016472;28;20480;-82
2022/05/07 04:52:08;;;;;;;12.63;8.88;;;;;;;;;;5022243;28;20488;-84
2022/05/07 04:54:34;;;;;;;10.85;8.20;;;;;;;;;;5015646;28;20025;-85
2022/05/07 04:57:00;;;;;;;11.45;7.60;;;;;;;;;;5033249;28;20064;-86
2022/05/07 04:59:26;;;;;;;10.43;7.85;;;;;;;;;;5015345;28;20041;-83
2022/05/07 05:01:52;;;;;;;15.80;9.88;;;;;;;;;;5028360;28;20060;-81
2022/05/07 05:04:18;;;;;;;12.68;10.13;;;;;;;;;;5016115;28;20029;-82
2022/05/07 05:06:45;;;;;;;17.23;10.13;;;;;;;;;;5011819;28;20022;-84
2022/05/07 05:09:15;;;;;;;14.65;10.02;;;;;;;;;;5018753;28;20095;-83
2022/05/07 05:11:41;;;;;;;18.02;10.60;;;;;;;;;;5016390;28;20025;-80
2022/05/07 05:16:53;;;;;;;24.92;11.27;;;;;;;;;;5037808;28;20036;-79
2022/05/07 05:19:19;;;;;;;22.40;11.20;;;;;;;;;;5029912;28;20026;-78
2022/05/07 05:21:46;;;;;;;12.95;10.45;;;;;;;;;;5031144;28;20029;-82
2022/05/07 05:24:12;;;;;;;13.40;11.68;;;;;;;;;;5034522;28;20031;-80
2022/05/07 05:26:38;;;;;;;12.45;10.88;;;;;;;;;;5036020;28;20098;-83
2022/05/07 05:29:04;;;;;;;24.98;15.15;;;;;;;;;;5018796;28;20026;-85
2022/05/07 05:31:30;;;;;;;23.40;13.07;;;;;;;;;;5038133;28;20081;-86
2022/05/07 05:33:57;;;;;;;16.60;12.18;;;;;;;;;;5035610;28;20469;-83
2022/05/07 05:36:32;;;;;;;15.93;12.35;;;;;;;;;;5018702;28;20029;-86
2022/05/07 05:38:58;;;;;;;16.33;11.77;;;;;;;;;;5019566;28;20456;-85
2022/05/07 05:41:24;;;;;;;23.67;12.23;;;;;;;;;;5035948;28;20017;-85
2022/05/07 05:43:50;;;;;;;15.43;11.82;;;;;;;;;;5031925;28;20102;-85
2022/05/07 05:46:16;;;;;;;18.58;11.02;;;;;;;;;;5034990;28;20118;-83
2022/05/07 05:48:42;;;;;;;14.52;10.35;;;;;;;;;;5043082;28;20028;-85
2022/05/07 05:51:08;;;;;;;14.73;10.02;;;;;;;;;;5051636;28;20028;-87
2022/05/07 05:53:35;;;;;;;10.82;9.00;;;;;;;;;;5048447;28;20037;-86
2022/05/07 05:56:01;;;;;;;10.57;9.13;;;;;;;;;;5031357;28;20018;-87
2022/05/07 05:58:33;;;;;;;12.77;9.70;;;;;;;;;;5045954;28;20044;-84
2022/05/07 06:00:59;;;;;;;11.95;9.85;;;;;;;;;;5039698;28;20018;-86
2022/05/07 06:03:25;;;;;;;14.48;9.68;;;;;;;;;;5031293;28;20025;-87
2022/05/07 06:05:52;;;;;;;12.25;8.73;;;;;;;;;;5026653;28;20041;-88
2022/05/07 06:08:18;;;;;;;13.25;9.35;;;;;;;;;;5037170;28;20063;-86
2022/05/07 06:10:44;;;;;;;13.18;9.05;;;;;;;;;;5039624;28;20018;-87
2022/05/07 06:13:10;;;;;;;10.85;8.55;;;;;;;;;;5047592;28;20033;-88
2022/05/07 06:15:38;;;;;;;15.10;8.95;;;;;;;;;;5042259;28;20017;-88
2022/05/07 06:18:04;;;;;;;13.65;9.88;;;;;;;;;;5052641;28;20008;-89
2022/05/07 06:20:30;;;;;;;13.20;10.43;;;;;;;;;;5039481;28;20079;-86
2022/05/07 06:23:01;;;;;;;13.52;9.75;;;;;;;;;;5043958;28;20013;-87
2022/05/07 06:28:13;;;;;;;9.98;8.50;;;;;;;;;;4991373;28;20413;-89
2022/05/07 06:30:39;;;;;;;14.02;8.52;;;;;;;;;;5023649;28;20404;-84
2022/05/07 06:33:05;;;;;;;11.75;9.20;;;;;;;;;;5041282;28;20068;-87
2022/05/07 06:35:31;;;;;;;10.23;8.90;;;;;;;;;;5044733;28;20269;-85
2022/05/07 06:37:58;;;;;;;12.35;9.10;;;;;;;;;;5040799;28;20029;-87
2022/05/07 06:40:24;;;;;;;12.27;9.18;;;;;;;;;;5046073;28;20032;-86
2022/05/07 06:42:51;;;;;;;11.68;8.55;;;;;;;;;;5051665;28;20041;-84
2022/05/07 06:45:17;;;;;;;14.30;9.48;;;;;;;;;;5045281;28;20029;-86
2022/05/07 06:47:43;;;;;;;11.88;9.02;;;;;;;;;;5037682;28;20480;-85
2022/05/07 06:50:09;;;;;;;12.38;9.25;;;;;;;;;;5015739;28;20113;-85
2022/05/07 06:52:45;;;;;;;15.15;9.43;;;;;;;;;;5016542;28;20014;-85
2022/05/07 06:55:14;;;;;;;12.25;9.60;;;;;;;;;;5018836;28;20025;-84
2022/05/07 06:57:41;;;;;;;14.90;9.00;;;;;;;;;;5036229;28;20100;-87
2022/05/07 07:00:07;;;;;;;13.05;7.90;;;;;;;;;;5050625;28;20025;-88
2022/05/07 07:02:34;;;;;;;11.63;8.48;;;;;;;;;;5042822;28;20088;-87
2022/05/07 07:05:00;;;;;;;12.85;8.27;;;;;;;;;;5045653;28;20048;-88
2022/05/07 07:07:26;;;;;;;14.82;7.68;;;;;;;;;;5039684;28;20105;-87
2022/05/07 07:09:53;;;;;;;10.90;8.20;;;;;;;;;;5022610;28;20032;-88
2022/05/07 07:12:22;;;;;;;14.23;8.05;;;;;;;;;;5023536;28;20079;-87
2022/05/07 07:14:48;;;;;;;10.52;6.75;;;;;;;;;;5037658;28;20044;-87
2022/05/07 07:17:16;;;;;;;13.60;6.53;;;;;;;;;;5040060;28;20025;-88
2022/05/07 07:19:42;;;;;;;9.73;6.03;;;;;;;;;;5028478;28;20046;-83
2022/05/07 07:22:09;;;;;;;11.55;7.22;;;;;;;;;;5029178;28;20036;-87
2022/05/07 07:24:35;;;;;;;15.63;7.65;;;;;;;;;;5028414;28;20032;-86
2022/05/07 07:27:01;;;;;;;12.52;6.85;;;;;;;;;;5027666;28;20014;-88
2022/05/07 07:29:27;;;;;;;10.10;6.95;;;;;;;;;;5048764;23;20035;-92
2022/05/07 07:31:54;;;;;;;10.20;6.13;;;;;;;;;;4988545;28;20019;-89
2022/05/07 07:34:21;;;;;;;11.02;6.70;;;;;;;;;;4991065;28;20022;-89
2022/05/07 07:36:50;;;;;;;9.73;6.13;;;;;;;;;;4981760;28;20027;-89
2022/05/07 07:39:16;;;;;;;10.23;6.93;;;;;;;;;;4981787;28;20035;-88
2022/05/07 07:41:43;;;;;;;11.50;7.03;;;;;;;;;;4990644;28;20386;-86
2022/05/07 07:44:09;;;;;;;11.48;5.95;;;;;;;;;;4987246;28;20042;-87
2022/05/07 07:49:20;;;;;;;9.20;5.75;;;;;;;;;;4982125;28;20058;-90
2022/05/07 07:51:46;;;;;;;10.88;7.30;;;;;;;;;;4991969;28;20046;-89
2022/05/07 07:54:14;;;;;;;6.88;5.13;;;;;;;;;;4989762;28;20011;-88
2022/05/07 07:56:42;;;;;;;7.85;4.95;;;;;;;;;;4985459;28;20023;-88
2022/05/07 07:59:09;;;;;;;9.20;5.25;;;;;;;;;;4980912;28;20054;-88
2022/05/07 08:01:35;;;;;;;8.40;5.63;;;;;;;;;;4978093;28;21363;-86
2022/05/07 08:04:01;;;;;;;7.57;5.97;;;;;;;;;;4975289;28;20046;-82
2022/05/07 08:06:29;;;;;;;7.30;4.90;;;;;;;;;;4975275;28;20023;-88
2022/05/07 08:11:44;;;;;;;12.20;6.38;;;;;;;;;;4971512;28;20038;-85
2022/05/07 08:14:13;;;;;;;12.73;5.63;;;;;;;;;;4968154;28;20493;-86
2022/05/07 08:16:39;;;;;;;12.32;5.28;;;;;;;;;;4968063;28;20516;-83
2022/05/07 08:19:06;;;;;;;11.52;5.97;;;;;;;;;;4973327;28;20027;-78
2022/05/07 08:21:32;;;;;;;9.40;5.68;;;;;;;;;;4973039;28;20062;-86
2022/05/07 08:23:59;;;;;;;9.57;5.65;;;;;;;;;;4981329;28;20078;-88
2022/05/07 08:26:25;;;;;;;10.57;5.00;;;;;;;;;;4968094;28;20088;-86
2022/05/07 08:28:52;;;;;;;10.80;4.93;;;;;;;;;;4972726;28;20029;-87
2022/05/07 08:31:18;;;;;;;7.82;5.53;;;;;;;;;;4987157;28;20414;-84
2022/05/07 08:33:44;;;;;;;8.73;5.85;;;;;;;;;;4969999;28;20011;-86
2022/05/07 08:36:11;;;;;;;6.53;5.45;;;;;;;;;;4987870;28;20041;-85
2022/05/07 08:38:37;;;;;;;7.47;4.88;;;;;;;;;;4992239;28;20094;-87
2022/05/07 08:41:04;;;;;;;8.48;5.10;;;;;;;;;;4992974;28;20025;-85
2022/05/07 08:43:37;;;;;;;8.70;5.57;;;;;;;;;;4975887;28;20034;-85
2022/05/07 08:46:10;;;;;;;10.65;6.85;;;;;;;;;;4976049;28;20109;-86
2022/05/07 08:48:38;;;;;;;8.55;6.20;;;;;;;;;;4993762;28;20026;-83
2022/05/07 08:51:05;;;;;;;8.55;4.88;;;;;;;;;;4975603;28;20493;-82
2022/05/07 08:53:31;;;;;;;8.40;5.10;;;;;;;;;;4989234;28;20076;-85
2022/05/07 08:55:57;;;;;;;12.35;6.88;;;;;;;;;;4973573;28;20117;-84
2022/05/07 08:58:24;;;;;;;13.70;5.60;;;;;;;;;;4971989;28;20121;-84
2022/05/07 09:00:50;;;;;;;9.82;5.20;;;;;;;;;;4982902;28;20037;-84
2022/05/07 09:03:17;;;;;;;6.63;5.03;;;;;;;;;;4972135;28;20057;-86
2022/05/07 09:05:44;;;;;;;11.32;5.25;;;;;;;;;;4969652;28;20042;-86
2022/05/07 09:08:13;;;;;;;6.53;5.30;;;;;;;;;;4980734;28;20438;-85
2022/05/07 09:10:40;;;;;;;8.80;5.00;;;;;;;;;;4981153;28;20073;-83
2022/05/07 09:13:16;;;;;;;8.80;4.75;;;;;;;;;;4980755;28;20025;-83
2022/05/07 09:15:53;;;;;;;7.10;5.25;;;;;;;;;;4971530;28;20097;-85
2022/05/07 09:18:19;;;;;;;9.35;5.38;;;;;;;;;;4975756;28;20022;-84
2022/05/07 09:20:57;;;;;;;11.30;5.70;;;;;;;;;;4993049;28;20081;-86
2022/05/07 09:23:23;;;;;;;10.35;6.07;;;;;;;;;;4977742;28;20088;-86
2022/05/07 09:25:50;;;;;;;10.40;5.25;;;;;;;;;;4975586;28;20512;-84
2022/05/07 09:28:26;;;;;;;8.02;5.38;;;;;;;;;;4975250;28;20018;-84
2022/05/07 09:30:55;;;;;;;12.43;5.45;;;;;;;;;;4975606;28;20050;-85
2022/05/07 09:33:32;;;;;;;9.30;4.43;;;;;;;;;;4975424;28;20022;-84
2022/05/07 09:36:08;;;;;;;7.43;5.93;;;;;;;;;;4975020;28;20030;-84
2022/05/07 09:38:34;;;;;;;8.18;5.45;;;;;;;;;;4955814;28;20066;-84
2022/05/07 09:41:00;;;;;;;17.10;6.10;;;;;;;;;;4956242;28;20367;-84
2022/05/07 09:43:26;;;;;;;10.95;5.75;;;;;;;;;;4974266;28;20045;-86
2022/05/07 09:45:53;;;;;;;15.45;5.72;;;;;;;;;;4967866;28;20026;-85
2022/05/07 09:48:19;;;;;;;10.85;5.60;;;;;;;;;;4973248;28;20110;-85
2022/05/07 09:50:45;;;;;;;10.63;5.43;;;;;;;;;;4956062;28;20038;-85
2022/05/07 09:58:42;;;;;;;8.20;5.13;;;;;;;;;;4992584;28;20085;-84
2022/05/07 10:01:25;;;;;;;7.80;5.05;;;;;;;;;;4975338;28;20026;-84
2022/05/07 10:04:06;;;;;;;10.57;5.93;;;;;;;;;;4963646;28;20035;-83
2022/05/07 10:06:41;;;;;;;12.55;5.30;;;;;;;;;;4978878;28;20078;-82
2022/05/07 10:09:26;;;;;;;11.05;4.88;;;;;;;;;;4958219;28;20034;-83
2022/05/07 10:11:56;;;;;;;9.55;5.50;;;;;;;;;;4958821;28;20042;-85
2022/05/07 10:14:30;;;;;;;6.47;4.50;;;;;;;;;;4959527;28;20113;-85
2022/05/07 10:17:16;;;;;;;12.25;5.00;;;;;;;;;;4959388;28;20023;-85
2022/05/07 10:19:43;;;;;;;13.23;6.20;;;;;;;;;;4959194;28;20073;-86
2022/05/07 10:22:21;;;;;;;10.00;5.18;;;;;;;;;;4959109;28;20430;-86
2022/05/07 10:24:47;;;;;;;8.27;4.78;;;;;;;;;;4965977;28;20062;-88
2022/05/07 10:27:25;;;;;;;7.22;4.93;;;;;;;;;;4977357;28;20019;-86
2022/05/07 10:29:52;;;;;;;5.90;4.65;;;;;;;;;;4977515;28;20554;-85
2022/05/07 10:32:19;;;;;;;10.85;5.20;;;;;;;;;;4958178;28;20050;-84
2022/05/07 10:34:52;;;;;;;6.05;4.38;;;;;;;;;;4980664;28;20034;-81
2022/05/07 10:37:18;;;;;;;12.48;5.65;;;;;;;;;;4974228;28;20025;-82
2022/05/07 10:39:52;;;;;;;10.02;4.65;;;;;;;;;;4995562;28;20029;-83
2022/05/07 10:42:19;;;;;;;5.72;4.85;;;;;;;;;;4977823;28;20633;-79
2022/05/07 10:44:45;;;;;;;10.10;4.60;;;;;;;;;;4995113;28;20072;-83
2022/05/07 10:47:12;;;;;;;11.32;5.78;;;;;;;;;;4977804;28;20030;-87
2022/05/07 10:49:55;;;;;;;8.63;4.53;;;;;;;;;;4970360;28;20022;-80
2022/05/07 10:52:31;;;;;;;6.53;4.57;;;;;;;;;;4974237;28;20034;-83
2022/05/07 10:55:16;;;;;;;11.73;4.50;;;;;;;;;;4976129;28;20031;-85
2022/05/07 10:57:43;;;;;;;10.25;4.68;;;;;;;;;;4976973;28;20034;-88
2022/05/07 11:00:13;;;;;;;5.05;4.30;;;;;;;;;;4974992;28;20024;-88
2022/05/07 11:02:40;;;;;;;6.55;4.57;;;;;;;;;;4974588;28;20545;-89
2022/05/07 11:05:07;;;;;;;8.65;4.47;;;;;;;;;;4978463;28;20124;-90
2022/05/07 11:07:33;;;;;;;10.52;5.22;;;;;;;;;;4980280;28;20019;-88
2022/05/07 11:09:59;;;;;;;7.07;4.18;;;;;;;;;;4975735;28;20061;-88
2022/05/07 11:12:26;;;;;;;4.00;3.30;;;;;;;;;;4975025;28;20054;-90
2022/05/07 11:14:52;;;;;;;6.85;4.22;;;;;;;;;;4975446;28;20027;-91
2022/05/07 11:17:28;;;;;;;9.35;4.63;;;;;;;;;;4978761;28;20031;-89
2022/05/07 11:19:54;;;;;;;9.77;4.65;;;;;;;;;;4975789;28;20522;-89
2022/05/07 11:22:25;;;;;;;5.60;4.32;;;;;;;;;;4977535;28;20042;-88
2022/05/07 11:24:56;;;;;;;13.80;4.25;;;;;;;;;;4979659;28;20022;-87
2022/05/07 11:27:25;;;;;;;6.38;4.20;;;;;;;;;;4976118;28;20027;-85
2022/05/07 11:29:53;;;;;;;8.77;3.80;;;;;;;;;;4975485;28;20039;-85
2022/05/07 11:32:19;;;;;;;5.57;3.92;;;;;;;;;;4976378;28;20478;-84
2022/05/07 11:34:45;;;;;;;5.38;4.45;;;;;;;;;;4976237;28;20026;-88
2022/05/07 11:37:21;;;;;;;5.45;4.35;;;;;;;;;;4977299;28;20023;-87
2022/05/07 11:39:54;;;;;;;6.13;4.10;;;;;;;;;;4975913;28;20023;-84
2022/05/07 11:42:20;;;;;;;;;;;;;;;;;;4978559;28;20122;-88
2022/05/07 11:47:36;;;;;;;10.70;4.85;;;;;;;;;;4985603;28;20057;-88
2022/05/07 11:50:06;;;;;;;8.63;4.40;;;;;;;;;;4982713;28;20026;-89
2022/05/07 11:52:32;;;;;;;5.35;4.38;;;;;;;;;;4978633;28;20043;-88
2022/05/07 11:55:03;;;;;;;5.95;5.05;;;;;;;;;;4976728;28;20031;-86
2022/05/07 11:57:29;;;;;;;6.82;4.65;;;;;;;;;;4980690;28;20019;-89
2022/05/07 11:59:56;;;;;;;7.80;5.18;;;;;;;;;;4976848;28;20034;-82
2022/05/07 12:02:22;;;;;;;7.85;4.50;;;;;;;;;;4975212;28;20062;-89
2022/05/07 12:07:28;;;;;;;11.52;4.93;;;;;;;;;;5027280;28;20496;-88
2022/05/07 12:09:54;;;;;;;5.30;4.28;;;;;;;;;;5023339;28;20048;-88
2022/05/07 12:12:20;;;;;;;8.85;4.40;;;;;;;;;;5013559;28;20018;-87
2022/05/07 12:14:46;;;;;;;3.90;3.38;;;;;;;;;;5014067;28;20080;-86
2022/05/07 12:19:56;;;;;;;6.35;4.03;;;;;;;;;;5014612;28;20092;-89
2022/05/07 12:30:36;;;;;;;6.80;4.15;;;;;;;;;;5012502;28;20088;-85
2022/05/07 12:33:02;;;;;;;5.22;3.80;;;;;;;;;;5012391;28;20029;-80
2022/05/07 12:35:29;;;;;;;4.53;3.75;;;;;;;;;;5016057;28;20022;-90
2022/05/07 12:37:55;;;;;;;6.88;4.80;;;;;;;;;;5013809;28;20033;-84
2022/05/07 12:40:21;;;;;;;9.15;4.57;;;;;;;;;;5014039;28;20069;-82
2022/05/07 12:42:48;;;;;;;7.07;4.00;;;;;;;;;;5011098;28;20038;-79
2022/05/07 12:45:14;;;;;;;7.07;4.35;;;;;;;;;;5011008;28;20037;-84
2022/05/07 12:47:40;;;;;;;7.00;4.78;;;;;;;;;;5011247;28;20021;-81
2022/05/07 12:50:07;;;;;;;7.93;4.28;;;;;;;;;;5011345;28;20072;-84
2022/05/07 12:52:33;;;;;;;5.57;3.83;;;;;;;;;;5011565;28;20487;-81
2022/05/07 12:54:59;;;;;;;7.15;4.78;;;;;;;;;;5006944;28;20022;-83
2022/05/07 12:57:25;;;;;;;6.47;4.88;;;;;;;;;;4991512;28;20018;-83
2022/05/07 12:59:51;;;;;;;6.68;5.07;;;;;;;;;;4992381;28;20022;-89
2022/05/07 13:02:18;;;;;;;11.48;4.68;;;;;;;;;;4999237;28;20034;-84
2022/05/07 13:04:44;;;;;;;7.30;4.68;;;;;;;;;;4998506;28;20489;-90
2022/05/07 13:07:10;;;;;;;8.98;4.95;;;;;;;;;;4998407;28;20046;-90
2022/05/07 13:09:37;;;;;;;7.70;4.93;;;;;;;;;;5009415;28;20026;-88
2022/05/07 13:12:03;;;;;;;7.78;5.30;;;;;;;;;;4996435;28;20466;-92
2022/05/07 13:14:35;;;;;;;7.28;5.22;;;;;;;;;;5012849;28;20065;-92
2022/05/07 13:17:01;;;;;;;7.18;5.90;;;;;;;;;;5011418;28;20471;-88
2022/05/07 13:19:28;;;;;;;6.50;4.93;;;;;;;;;;5011675;28;20026;-89
2022/05/07 13:21:54;;;;;;;8.73;7.82;;;;;;;;;;5013441;28;20026;-91
2022/05/07 13:24:20;;;;;;;11.40;6.05;;;;;;;;;;5012192;28;20038;-85
2022/05/07 13:26:47;;;;;;;13.25;9.95;;;;;;;;;;5013095;28;20046;-87
2022/05/07 13:29:13;;;;;;;10.10;5.47;;;;;;;;;;5015982;28;20044;-87
2022/05/07 13:31:40;;;;;;;8.65;6.45;;;;;;;;;;5013093;28;20075;-81
2022/05/07 13:34:06;;;;;;;7.15;5.53;;;;;;;;;;5015134;28;20028;-82
2022/05/07 13:36:33;;;;;;;11.27;6.72;;;;;;;;;;5019724;28;20022;-87
2022/05/07 13:38:59;;;;;;;9.98;7.57;;;;;;;;;;5014868;28;20325;-88
2022/05/07 13:41:28;;;;;;;6.68;4.57;;;;;;;;;;5011065;28;20026;-85
2022/05/07 13:43:55;;;;;;;7.18;3.92;;;;;;;;;;5012953;28;20088;-86
2022/05/07 13:46:21;;;;;;;6.30;3.80;;;;;;;;;;5024463;28;20018;-84
2022/05/07 13:48:47;;;;;;;7.40;4.85;;;;;;;;;;5014868;28;20448;-82
2022/05/07 13:51:13;;;;;;;6.07;4.32;;;;;;;;;;5018409;28;20461;-88
2022/05/07 13:53:40;;;;;;;7.47;4.75;;;;;;;;;;5020236;28;20046;-88
2022/05/07 13:56:06;;;;;;;8.45;4.82;;;;;;;;;;5015787;28;20018;-87
2022/05/07 13:58:33;;;;;;;9.35;4.70;;;;;;;;;;5016559;28;20032;-89
2022/05/07 14:00:59;;;;;;;5.82;4.40;;;;;;;;;;5017114;28;20112;-87
2022/05/07 14:03:25;;;;;;;7.20;4.63;;;;;;;;;;5017757;28;20037;-88
2022/05/07 14:05:51;;;;;;;7.85;4.22;;;;;;;;;;5016713;28;20060;-87
2022/05/07 14:08:18;;;;;;;8.57;5.78;;;;;;;;;;5017155;28;20061;-86
2022/05/07 14:10:44;;;;;;;8.38;4.60;;;;;;;;;;5010973;28;20023;-88
2022/05/07 14:13:10;;;;;;;11.18;5.32;;;;;;;;;;4997844;28;20018;-88
2022/05/07 14:15:36;;;;;;;7.90;5.25;;;;;;;;;;4999942;28;20061;-87
2022/05/07 14:18:02;;;;;;;13.60;6.63;;;;;;;;;;4997158;28;20094;-89
2022/05/07 14:20:28;;;;;;;13.18;8.55;;;;;;;;;;5000856;28;20019;-88
2022/05/07 14:22:54;;;;;;;11.23;5.97;;;;;;;;;;4999368;28;20034;-86
2022/05/07 14:25:22;;;;;;;6.63;4.72;;;;;;;;;;5000804;28;20023;-89
2022/05/07 14:27:48;;;;;;;9.18;7.13;;;;;;;;;;4999483;28;20029;-89
2022/05/07 14:30:14;;;;;;;6.47;4.70;;;;;;;;;;5000501;28;20074;-89
2022/05/07 14:32:40;;;;;;;14.25;11.68;;;;;;;;;;4998193;28;20029;-86
2022/05/07 14:35:10;;;;;;;34.70;31.30;;;;;;;;;;4998991;28;20019;-88
2022/05/07 14:37:37;;;;;;;12.50;11.13;;;;;;;;;;4997590;28;20026;-88
2022/05/07 14:40:28;;;;;;;7.40;4.97;;;;;;;;;;4999933;28;20104;-89
2022/05/07 14:42:49;;;;;;;14.95;8.18;;;;;;;;;;4998098;28;20382;-88
2022/05/07 14:45:16;;;;;;;8.95;5.80;;;;;;;;;;4997136;28;20080;-87
2022/05/07 14:47:42;;;;;;;9.98;6.75;;;;;;;;;;4996255;28;20509;-87
2022/05/07 14:50:08;;;;;;;15.35;8.30;;;;;;;;;;4999875;28;20057;-87
2022/05/07 14:52:34;;;;;;;6.82;5.47;;;;;;;;;;4997210;28;20054;-88
2022/05/07 14:55:00;;;;;;;12.90;7.38;;;;;;;;;;4998368;28;20053;-87
2022/05/07 14:57:26;;;;;;;10.80;6.57;;;;;;;;;;5003217;28;20076;-87
2022/05/07 14:59:52;;;;;;;9.98;7.47;;;;;;;;;;5000205;28;20030;-88
2022/05/07 15:02:18;;;;;;;9.77;6.22;;;;;;;;;;5000708;28;20027;-87
2022/05/07 15:04:45;;;;;;;8.38;6.53;;;;;;;;;;5003773;28;20053;-88
2022/05/07 15:07:11;;;;;;;10.57;5.93;;;;;;;;;;4997283;28;20058;-88
2022/05/07 15:12:22;;;;;;;6.57;4.53;;;;;;;;;;5001143;28;20169;-89
2022/05/07 15:14:49;;;;;;;8.70;4.03;;;;;;;;;;5000353;28;20023;-88
2022/05/07 15:17:15;;;;;;;8.77;4.38;;;;;;;;;;5012657;28;20049;-89